Latest Weather Observations for Fort Denison

IDN60901

Issued at 10:52 pm EDT Thursday 5 March 2015 (issued every 10 minutes, with the page automatically refreshed every 10 minutes)

About weather observations | Map of Sydney area stations | Latest observations for Sydney area | Other Formats
Station Details ID: 066022 Name: FORT DENISON Lat: -33.86 Lon: 151.23 Height: 5.0 m
Data from the previous 72 hours. | See also: Recent months for locations in New South Wales
Date/Time
EDT
Tmp

°C
App
Tmp
°C
Dew
Point
°C
Rel
Hum
%
Delta-T

°C
Wind Press
QNH
hPa
Press
MSL
hPa
Rain
since
9 am
mm
Dir
 
Spd
km/h
Gust
km/h
Spd
kts
Gust
kts
05/10:30pm - - - - - SSE 13 19 7 10 - - -
05/10:00pm - - - - - SSE 15 20 8 11 - - -
05/09:30pm - - - - - SSE 15 22 8 12 - - -
05/09:00pm - - - - - SSE 19 26 10 14 - - -
05/08:30pm - - - - - SSE 15 24 8 13 - - -
05/08:00pm - - - - - SSE 20 33 11 18 - - -
05/07:30pm - - - - - SSE 22 33 12 18 - - -
05/07:00pm - - - - - SSE 24 37 13 20 - - -
05/06:30pm - - - - - SSE 28 41 15 22 - - -
05/06:00pm - - - - - SSE 22 35 12 19 - - -
05/05:30pm - - - - - SSE 28 41 15 22 - - -
05/05:00pm - - - - - SSE 33 54 18 29 - - -
05/04:45pm - - - - - SSE 33 52 18 28 - - -
05/04:30pm - - - - - SSE 37 50 20 27 - - -
05/04:00pm - - - - - SSE 35 46 19 25 - - -
05/03:30pm - - - - - SSE 28 43 15 23 - - -
05/03:26pm - - - - - SSE 30 48 16 26 - - -
05/03:00pm - - - - - SSE 35 50 19 27 - - -
05/02:36pm - - - - - SSE 32 50 17 27 - - -
05/02:30pm - - - - - SSE 32 44 17 24 - - -
05/02:09pm - - - - - SSE 35 54 19 29 - - -
05/02:00pm - - - - - SSE 41 50 22 27 - - -
05/01:42pm - - - - - SSE 35 54 19 29 - - -
05/01:30pm - - - - - SSE 43 59 23 32 - - -
05/01:22pm - - - - - SSW 24 46 13 25 - - -
05/01:00pm - - - - - SW 20 37 11 20 - - -
05/12:36pm - - - - - WSW 28 50 15 27 - - -
05/12:30pm - - - - - WSW 24 43 13 23 - - -
05/12:00pm - - - - - WSW 30 46 16 25 - - -
05/11:47am - - - - - WSW 28 48 15 26 - - -
05/11:30am - - - - - SW 24 37 13 20 - - -
05/11:00am - - - - - WSW 19 35 10 19 - - -
05/10:30am - - - - - WSW 19 32 10 17 - - -
05/10:00am - - - - - SW 11 20 6 11 - - -
05/09:30am - - - - - SW 19 30 10 16 - - -
05/09:00am - - - - - SW 15 37 8 20 - - -
05/08:30am - - - - - WSW 17 24 9 13 - - -
05/08:00am - - - - - SSW 15 22 8 12 - - -
05/07:30am - - - - - W 15 19 8 10 - - -
05/07:00am - - - - - W 11 17 6 9 - - -
05/06:30am - - - - - W 15 19 8 10 - - -
05/06:00am - - - - - W 17 20 9 11 - - -
05/05:30am - - - - - W 19 20 10 11 - - -
05/05:00am - - - - - W 19 22 10 12 - - -
05/04:30am - - - - - W 13 17 7 9 - - -
05/04:00am - - - - - W 15 19 8 10 - - -
05/03:30am - - - - - W 17 19 9 10 - - -
05/03:00am - - - - - W 11 13 6 7 - - -
05/02:30am - - - - - WNW 13 13 7 7 - - -
05/02:00am - - - - - WNW 9 9 5 5 - - -
05/01:30am - - - - - WNW 6 7 3 4 - - -
05/01:00am - - - - - W 6 7 3 4 - - -
05/12:30am - - - - - WNW 4 6 2 3 - - -
 
Date/Time
EDT
Tmp

°C
App
Tmp
°C
Dew
Point
°C
Rel
Hum
%
Delta-T

°C
Wind Press
QNH
hPa
Press
MSL
hPa
Rain
since
9 am
mm
Dir
 
Spd
km/h
Gust
km/h
Spd
kts
Gust
kts
04/11:30pm - - - - - WSW 2 2 1 1 - - -
04/11:00pm - - - - - E 4 4 2 2 - - -
04/10:30pm - - - - - ENE 4 6 2 3 - - -
04/10:00pm - - - - - E 2 4 1 2 - - -
04/09:30pm - - - - - NNE 2 6 1 3 - - -
04/09:00pm - - - - - ENE 9 15 5 8 - - -
04/08:30pm - - - - - E 11 13 6 7 - - -
04/08:00pm - - - - - ENE 9 11 5 6 - - -
04/07:30pm - - - - - ENE 9 13 5 7 - - -
04/07:00pm - - - - - ENE 15 19 8 10 - - -
04/06:30pm - - - - - E 17 20 9 11 - - -
04/06:00pm - - - - - ENE 17 20 9 11 - - -
04/05:30pm - - - - - ENE 17 20 9 11 - - -
04/05:00pm - - - - - ESE 17 19 9 10 - - -
04/04:30pm - - - - - ESE 15 19 8 10 - - -
04/04:00pm - - - - - E 15 19 8 10 - - -
04/03:30pm - - - - - ESE 17 22 9 12 - - -
04/03:00pm - - - - - E 13 19 7 10 - - -
04/02:30pm - - - - - E 15 19 8 10 - - -
04/02:00pm - - - - - ESE 11 17 6 9 - - -
04/01:30pm - - - - - ESE 9 11 5 6 - - -
04/01:00pm - - - - - E 13 17 7 9 - - -
04/12:30pm - - - - - ESE 7 11 4 6 - - -
04/12:00pm - - - - - S 6 9 3 5 - - -
04/11:30am - - - - - SSW 11 15 6 8 - - -
04/11:00am - - - - - S 13 20 7 11 - - -
04/10:30am - - - - - S 13 19 7 10 - - -
04/10:00am - - - - - S 9 17 5 9 - - -
04/09:30am - - - - - SSW 9 15 5 8 - - -
04/09:00am - - - - - S 7 11 4 6 - - -
04/08:30am - - - - - SSW 6 9 3 5 - - -
04/08:00am - - - - - SSW 9 13 5 7 - - -
04/07:30am - - - - - SSW 9 15 5 8 - - -
04/07:00am - - - - - SSW 7 13 4 7 - - -
04/06:30am - - - - - SW 4 9 2 5 - - -
04/06:00am - - - - - S 13 22 7 12 - - -
04/05:30am - - - - - S 15 24 8 13 - - -
04/05:00am - - - - - SSW 15 22 8 12 - - -
04/04:30am - - - - - SSW 15 20 8 11 - - -
04/04:00am - - - - - SSW 11 19 6 10 - - -
04/03:30am - - - - - SSW 11 19 6 10 - - -
04/03:00am - - - - - S 17 22 9 12 - - -
04/02:30am - - - - - SSW 13 19 7 10 - - -
04/02:00am - - - - - SSE 9 13 5 7 - - -
04/01:30am - - - - - SSE 4 7 2 4 - - -
04/01:00am - - - - - SSE 6 7 3 4 - - -
04/12:30am - - - - - SSE 6 7 3 4 - - -
04/12:00am - - - - - SSE 6 9 3 5 - - -
 
Date/Time
EDT
Tmp

°C
App
Tmp
°C
Dew
Point
°C
Rel
Hum
%
Delta-T

°C
Wind Press
QNH
hPa
Press
MSL
hPa
Rain
since
9 am
mm
Dir
 
Spd
km/h
Gust
km/h
Spd
kts
Gust
kts
03/11:30pm - - - - - SE 4 6 2 3 - - -
03/11:00pm - - - - - ESE 4 4 2 2 - - -
03/10:30pm - - - - - SE 4 6 2 3 - - -
03/10:00pm - - - - - ENE 6 6 3 3 - - -
03/09:30pm - - - - - E 7 9 4 5 - - -
03/09:00pm - - - - - ENE 9 13 5 7 - - -
03/08:30pm - - - - - E 9 13 5 7 - - -
03/08:00pm - - - - - ENE 11 15 6 8 - - -
03/07:30pm - - - - - ENE 13 19 7 10 - - -
03/07:00pm - - - - - ENE 13 17 7 9 - - -
03/06:30pm - - - - - ENE 17 26 9 14 - - -
03/06:00pm - - - - - ENE 13 19 7 10 - - -
03/05:30pm - - - - - ENE 15 24 8 13 - - -
03/05:00pm - - - - - ENE 20 28 11 15 - - -
03/04:30pm - - - - - ENE 26 32 14 17 - - -
03/04:00pm - - - - - E 28 33 15 18 - - -
03/03:30pm - - - - - E 26 30 14 16 - - -
03/03:00pm - - - - - E 28 32 15 17 - - -
03/02:30pm - - - - - ENE 22 33 12 18 - - -
03/02:00pm - - - - - ENE 26 32 14 17 - - -
03/01:30pm - - - - - ENE 26 32 14 17 - - -
03/01:00pm - - - - - E 26 30 14 16 - - -
03/12:30pm - - - - - E 22 26 12 14 - - -
03/12:00pm - - - - - E 19 24 10 13 - - -
03/11:30am - - - - - NE 13 19 7 10 - - -
03/11:00am - - - - - N 7 13 4 7 - - -
03/10:30am - - - - - NNE 13 19 7 10 - - -
03/10:00am - - - - - NW 17 22 9 12 - - -
03/09:30am - - - - - W 13 15 7 8 - - -
03/09:00am - - - - - WNW 9 13 5 7 - - -
03/08:30am - - - - - W 7 9 4 5 - - -
03/08:00am - - - - - WNW 11 15 6 8 - - -
03/07:30am - - - - - W 11 15 6 8 - - -
03/07:00am - - - - - W 9 13 5 7 - - -
03/06:30am - - - - - WNW 7 9 4 5 - - -
03/06:00am - - - - - WNW 7 11 4 6 - - -
03/05:30am - - - - - WNW 6 9 3 5 - - -
03/05:00am - - - - - W 13 15 7 8 - - -
03/04:30am - - - - - WNW 9 13 5 7 - - -
03/04:00am - - - - - W 9 11 5 6 - - -
03/03:30am - - - - - W 7 11 4 6 - - -
03/03:00am - - - - - WNW 7 9 4 5 - - -
03/02:30am - - - - - NW 4 7 2 4 - - -
03/02:00am - - - - - WNW 9 11 5 6 - - -
03/01:30am - - - - - WNW 9 9 5 5 - - -
03/01:00am - - - - - WNW 13 15 7 8 - - -
03/12:30am - - - - - WNW 7 9 4 5 - - -
03/12:00am - - - - - WNW 6 7 3 4 - - -
 
Date/Time
EDT
Tmp

°C
App
Tmp
°C
Dew
Point
°C
Rel
Hum
%
Delta-T

°C
Wind Press
QNH
hPa
Press
MSL
hPa
Rain
since
9 am
mm
Dir
 
Spd
km/h
Gust
km/h
Spd
kts
Gust
kts
02/11:30pm - - - - - NW 6 7 3 4 - - -
02/11:00pm - - - - - NW 6 7 3 4 - - -

Latest Capital City Observations: Canberra | Sydney | Melbourne | Brisbane | Adelaide | Perth | Hobart | Darwin

Other Formats:

Comma delimited format used in spreadsheet applications
http://www.bom.gov.au/fwo/IDN60901/IDN60901.94769.axf

JavaScript Object Notation format (JSON) in row-major order
http://www.bom.gov.au/fwo/IDN60901/IDN60901.94769.json